Time;durP1;ratioP1;P1;durP2;ratioP2;P2;SDS_P1;SDS_P2;PMS_P1;PMS_P2;Temp;Humidity;BMP_temperature;BMP_pressure;BME280_temperature;BME280_humidity;BME280_pressure;Samples;Min_cycle;Max_cycle;Signal;HPM_P1;HPM_P2
2023/05/21 00:01:36;;;;;;;19.55;10.88;;;17.60;99.90;;;;;;5054505;28;20115;-87
2023/05/21 00:04:02;;;;;;;17.75;12.23;;;17.60;99.90;;;;;;5053695;28;20359;-87
2023/05/21 00:06:28;;;;;;;18.15;11.43;;;17.60;99.90;;;;;;5054056;28;20027;-87
2023/05/21 00:08:53;;;;;;;19.15;12.05;;;17.60;99.90;;;;;;5055219;28;20369;-88
2023/05/21 00:11:19;;;;;;;19.25;12.00;;;17.60;99.90;;;;;;5054111;28;20025;-86
2023/05/21 00:13:44;;;;;;;20.92;12.10;;;17.60;99.90;;;;;;5053792;28;20040;-87
2023/05/21 00:16:10;;;;;;;19.42;12.27;;;17.60;99.90;;;;;;5061968;28;20025;-87
2023/05/21 00:18:38;;;;;;;19.13;11.52;;;17.60;99.90;;;;;;5073972;28;20055;-87
2023/05/21 00:21:04;;;;;;;17.30;11.07;;;17.60;99.90;;;;;;5074475;28;20024;-86
2023/05/21 00:23:31;;;;;;;18.73;11.82;;;17.60;99.90;;;;;;5073675;28;20120;-86
2023/05/21 00:25:58;;;;;;;16.98;11.10;;;17.50;99.90;;;;;;5073353;28;20029;-89
2023/05/21 00:28:24;;;;;;;18.88;11.27;;;17.50;99.90;;;;;;5074794;28;20107;-88
2023/05/21 00:30:49;;;;;;;20.55;11.70;;;17.50;99.90;;;;;;5074022;28;20064;-87
2023/05/21 00:33:15;;;;;;;17.83;11.57;;;17.50;99.90;;;;;;5072916;28;20047;-88
2023/05/21 00:35:41;;;;;;;16.83;10.80;;;17.50;99.90;;;;;;5074377;28;20067;-87
2023/05/21 00:38:07;;;;;;;20.73;11.68;;;17.50;99.90;;;;;;5073223;28;20107;-88
2023/05/21 00:40:39;;;;;;;19.90;11.82;;;17.40;99.90;;;;;;5055251;28;20059;-86
2023/05/21 00:43:06;;;;;;;19.05;11.38;;;17.40;99.90;;;;;;5052952;28;20032;-87
2023/05/21 00:45:35;;;;;;;19.58;11.77;;;17.40;99.90;;;;;;5054377;28;20029;-86
2023/05/21 00:48:01;;;;;;;19.38;11.60;;;17.50;99.90;;;;;;5053016;28;20516;-87
2023/05/21 00:50:29;;;;;;;20.17;12.13;;;17.40;99.90;;;;;;5053712;28;20075;-85
2023/05/21 00:52:55;;;;;;;17.80;11.25;;;17.50;99.90;;;;;;5053139;28;20101;-85
2023/05/21 00:55:21;;;;;;;17.35;10.45;;;17.40;99.90;;;;;;5053077;28;20033;-87
2023/05/21 00:57:48;;;;;;;17.25;11.43;;;17.40;99.90;;;;;;5053323;28;20485;-87
2023/05/21 01:00:15;;;;;;;19.73;11.45;;;17.30;99.90;;;;;;5053138;28;20053;-90
2023/05/21 01:02:41;;;;;;;20.35;12.35;;;17.30;99.90;;;;;;5053812;28;20029;-90
2023/05/21 01:05:07;;;;;;;19.33;11.65;;;17.30;99.90;;;;;;5052697;28;20367;-88
2023/05/21 01:07:34;;;;;;;19.58;12.00;;;17.30;99.90;;;;;;5054837;28;20033;-90
2023/05/21 01:10:05;;;;;;;21.10;12.35;;;17.30;99.90;;;;;;5053237;28;20075;-90
2023/05/21 01:12:32;;;;;;;15.88;10.13;;;17.30;99.90;;;;;;5053893;28;20104;-86
2023/05/21 01:15:02;;;;;;;20.17;12.57;;;17.20;99.90;;;;;;5053111;28;20119;-87
2023/05/21 01:17:30;;;;;;;19.75;11.95;;;17.20;99.90;;;;;;5053258;28;20116;-86
2023/05/21 01:19:59;;;;;;;21.52;12.55;;;17.20;99.90;;;;;;5052953;28;20036;-86
2023/05/21 01:22:27;;;;;;;22.30;12.55;;;17.20;99.90;;;;;;5052876;28;20120;-86
2023/05/21 01:24:54;;;;;;;20.50;12.02;;;17.20;99.90;;;;;;5054112;28;20040;-86
2023/05/21 01:27:20;;;;;;;20.70;11.68;;;17.20;99.90;;;;;;5054100;28;20028;-86
2023/05/21 01:29:46;;;;;;;18.88;11.95;;;17.20;99.90;;;;;;5069896;28;20029;-87
2023/05/21 01:32:36;;;;;;;20.23;12.10;;;17.20;99.90;;;;;;5052871;28;20052;-87
2023/05/21 01:35:19;;;;;;;20.15;12.10;;;17.20;99.90;;;;;;5069473;28;20021;-87
2023/05/21 01:37:54;;;;;;;18.38;11.30;;;17.20;99.90;;;;;;5054014;28;20104;-87
2023/05/21 01:40:49;;;;;;;19.25;11.75;;;17.10;99.90;;;;;;5052960;28;20044;-86
2023/05/21 01:43:16;;;;;;;19.08;10.85;;;17.00;99.90;;;;;;5038864;28;20502;-86
2023/05/21 01:45:43;;;;;;;19.13;10.88;;;17.00;99.90;;;;;;5052733;28;20052;-87
2023/05/21 01:48:11;;;;;;;19.58;11.38;;;17.00;99.90;;;;;;5052563;28;20087;-86
2023/05/21 01:50:38;;;;;;;19.05;11.23;;;17.00;99.90;;;;;;5055442;28;20466;-87
2023/05/21 01:53:04;;;;;;;18.13;11.45;;;17.10;99.90;;;;;;5057342;28;20382;-89
2023/05/21 01:55:31;;;;;;;17.50;10.75;;;17.00;99.90;;;;;;5057843;28;20026;-87
2023/05/21 01:57:58;;;;;;;20.45;11.50;;;17.00;99.90;;;;;;5056956;28;20025;-87
2023/05/21 02:00:27;;;;;;;18.63;11.10;;;17.00;99.90;;;;;;5056948;28;20338;-87
2023/05/21 02:02:52;;;;;;;17.73;11.20;;;16.90;99.90;;;;;;5057839;28;20033;-87
2023/05/21 02:05:18;;;;;;;17.23;10.85;;;16.90;99.90;;;;;;5056099;28;20032;-88
2023/05/21 02:07:44;;;;;;;20.98;11.00;;;16.90;99.90;;;;;;5073130;28;20088;-87
2023/05/21 02:10:11;;;;;;;20.42;11.07;;;16.80;99.90;;;;;;5057117;28;20025;-89
2023/05/21 02:12:37;;;;;;;18.00;11.70;;;16.80;99.90;;;;;;5056522;28;20477;-89
2023/05/21 02:15:03;;;;;;;18.67;11.55;;;16.80;99.90;;;;;;5056203;28;20033;-89
2023/05/21 02:17:32;;;;;;;21.35;11.48;;;16.80;99.90;;;;;;5056870;28;20018;-89
2023/05/21 02:20:10;;;;;;;17.90;11.07;;;16.80;99.90;;;;;;5056331;28;20082;-90
2023/05/21 02:22:37;;;;;;;21.90;10.70;;;16.80;99.90;;;;;;5056232;28;20076;-89
2023/05/21 02:25:03;;;;;;;19.83;10.93;;;16.80;99.90;;;;;;5055991;28;20036;-89
2023/05/21 02:27:30;;;;;;;17.02;10.73;;;16.80;99.90;;;;;;5056270;28;20059;-89
2023/05/21 02:29:56;;;;;;;18.80;10.88;;;16.70;99.90;;;;;;5057497;28;20408;-88
2023/05/21 02:32:22;;;;;;;18.13;11.07;;;16.70;99.90;;;;;;5055693;28;20041;-89
2023/05/21 02:34:48;;;;;;;16.60;10.25;;;16.70;99.90;;;;;;5056107;28;20462;-89
2023/05/21 02:37:14;;;;;;;18.52;10.90;;;16.70;99.90;;;;;;5056010;28;20120;-89
2023/05/21 02:39:40;;;;;;;20.48;10.60;;;16.70;99.90;;;;;;5056084;28;20122;-88
2023/05/21 02:42:05;;;;;;;18.30;11.43;;;16.60;99.90;;;;;;5056606;28;20040;-88
2023/05/21 02:44:31;;;;;;;21.38;11.30;;;16.60;99.90;;;;;;5055775;28;20036;-88
2023/05/21 02:46:56;;;;;;;18.70;10.90;;;16.60;99.90;;;;;;5056300;28;20101;-88
2023/05/21 02:49:22;;;;;;;18.58;11.15;;;16.60;99.90;;;;;;5055241;28;20033;-87
2023/05/21 02:51:47;;;;;;;21.23;12.35;;;16.60;99.90;;;;;;5056384;28;20017;-85
2023/05/21 02:54:14;;;;;;;21.52;11.48;;;16.50;99.90;;;;;;5054978;28;20029;-86
2023/05/21 02:56:40;;;;;;;15.80;10.55;;;16.50;99.90;;;;;;5072153;28;20029;-85
2023/05/21 02:59:05;;;;;;;17.42;10.55;;;16.50;99.90;;;;;;5055115;28;20120;-87
2023/05/21 03:01:31;;;;;;;19.15;10.80;;;16.50;99.90;;;;;;5054273;28;20482;-86
2023/05/21 03:03:56;;;;;;;17.17;10.45;;;16.40;99.90;;;;;;5055180;28;20036;-87
2023/05/21 03:06:22;;;;;;;20.25;11.63;;;16.50;99.90;;;;;;5055984;28;20086;-89
2023/05/21 03:08:48;;;;;;;17.98;11.23;;;16.40;99.90;;;;;;5056185;28;20474;-89
2023/05/21 03:11:13;;;;;;;16.88;10.85;;;16.30;99.90;;;;;;5055926;28;20096;-89
2023/05/21 03:13:39;;;;;;;17.17;10.38;;;16.30;99.90;;;;;;5056065;28;20037;-89
2023/05/21 03:16:05;;;;;;;17.38;10.63;;;16.30;99.90;;;;;;5054987;28;20024;-89
2023/05/21 03:18:30;;;;;;;18.75;11.43;;;16.20;99.90;;;;;;5055757;28;20098;-89
2023/05/21 03:20:57;;;;;;;18.13;10.93;;;16.20;99.90;;;;;;5056015;28;20030;-89
2023/05/21 03:23:23;;;;;;;17.20;11.10;;;16.10;99.90;;;;;;5071361;28;20480;-88
2023/05/21 03:25:49;;;;;;;18.60;11.40;;;16.10;99.90;;;;;;5055975;28;20025;-88
2023/05/21 03:28:16;;;;;;;22.33;12.32;;;16.00;99.90;;;;;;5054481;28;20025;-88
2023/05/21 03:30:45;;;;;;;20.20;11.20;;;16.00;99.90;;;;;;5055917;28;20032;-88
2023/05/21 03:33:12;;;;;;;20.05;11.27;;;16.00;99.90;;;;;;5054351;28;20424;-87
2023/05/21 03:35:38;;;;;;;17.85;10.95;;;15.90;99.90;;;;;;5054669;28;20031;-87
2023/05/21 03:38:04;;;;;;;17.48;11.05;;;15.90;99.90;;;;;;5054608;28;20127;-87
2023/05/21 03:40:29;;;;;;;19.65;11.57;;;15.90;99.90;;;;;;5054882;28;20032;-87
2023/05/21 03:42:55;;;;;;;16.63;10.48;;;15.90;99.90;;;;;;5054762;28;20029;-87
2023/05/21 03:45:20;;;;;;;19.42;11.32;;;16.00;99.90;;;;;;5054200;28;20458;-88
2023/05/21 03:47:47;;;;;;;19.63;11.43;;;16.00;99.90;;;;;;5054489;28;20025;-85
2023/05/21 03:50:13;;;;;;;17.92;11.25;;;15.90;99.90;;;;;;5054009;28;20116;-88
2023/05/21 03:52:38;;;;;;;18.35;10.77;;;15.90;99.90;;;;;;5054580;28;20451;-87
2023/05/21 03:55:05;;;;;;;20.05;11.63;;;15.90;99.90;;;;;;5054439;28;20035;-87
2023/05/21 03:57:31;;;;;;;21.85;12.18;;;15.80;99.90;;;;;;5054872;28;20051;-86
2023/05/21 03:59:57;;;;;;;17.05;10.65;;;15.80;99.90;;;;;;5054039;28;20032;-86
2023/05/21 04:02:25;;;;;;;21.42;11.85;;;15.70;99.90;;;;;;5053668;28;20524;-87
2023/05/21 04:04:52;;;;;;;17.70;11.07;;;15.80;99.90;;;;;;5054121;28;20084;-87
2023/05/21 04:07:18;;;;;;;17.73;10.48;;;15.70;99.90;;;;;;5053839;28;20033;-90
2023/05/21 04:09:45;;;;;;;18.10;11.38;;;15.70;99.90;;;;;;5054680;28;20067;-89
2023/05/21 04:12:10;;;;;;;19.48;10.75;;;15.70;99.90;;;;;;5054484;28;20033;-91
2023/05/21 04:14:36;;;;;;;18.83;11.60;;;15.70;99.90;;;;;;5053986;28;20078;-89
2023/05/21 04:17:04;;;;;;;19.75;11.65;;;15.70;99.90;;;;;;5054116;28;20032;-90
2023/05/21 04:19:32;;;;;;;22.45;11.27;;;15.60;99.90;;;;;;5053576;28;20028;-90
2023/05/21 04:21:58;;;;;;;18.35;10.65;;;15.60;99.90;;;;;;5055115;28;20025;-90
2023/05/21 04:24:24;;;;;;;19.83;11.45;;;15.60;99.90;;;;;;5053394;28;20116;-88
2023/05/21 04:26:50;;;;;;;19.52;11.45;;;15.60;99.90;;;;;;5053623;28;20029;-88
2023/05/21 04:29:16;;;;;;;16.77;10.80;;;15.60;99.90;;;;;;5053298;28;20385;-89
2023/05/21 04:31:42;;;;;;;21.13;10.82;;;15.60;99.90;;;;;;5053498;28;20040;-89
2023/05/21 04:34:08;;;;;;;17.02;10.88;;;15.60;99.90;;;;;;5053797;28;20052;-89
2023/05/21 04:36:34;;;;;;;18.40;11.30;;;15.60;99.90;;;;;;5053308;28;20045;-88
2023/05/21 04:39:00;;;;;;;19.95;11.15;;;15.50;99.90;;;;;;5053332;28;20021;-88
2023/05/21 04:41:25;;;;;;;18.65;10.55;;;15.50;99.90;;;;;;5053265;28;20067;-89
2023/05/21 04:43:53;;;;;;;18.38;11.48;;;15.50;99.90;;;;;;5053454;28;20106;-86
2023/05/21 04:46:23;;;;;;;22.48;11.30;;;15.50;99.90;;;;;;5054045;28;20367;-86
2023/05/21 04:48:55;;;;;;;18.80;11.35;;;15.50;99.90;;;;;;5053418;28;20033;-85
2023/05/21 04:51:25;;;;;;;;;;;15.50;99.90;;;;;;5056363;28;20021;-89
2023/05/21 04:53:52;;;;;;;20.08;11.38;;;15.60;99.90;;;;;;5063672;28;20286;-87
2023/05/21 04:56:18;;;;;;;16.23;9.98;;;15.60;99.90;;;;;;5060409;28;20028;-88
2023/05/21 04:58:44;;;;;;;19.95;12.07;;;15.70;99.90;;;;;;5076119;28;20035;-89
2023/05/21 05:01:11;;;;;;;17.80;11.00;;;15.60;99.90;;;;;;5095158;28;20071;-87
2023/05/21 05:03:37;;;;;;;18.80;11.18;;;15.70;99.90;;;;;;5078975;28;20108;-88
2023/05/21 05:06:03;;;;;;;19.75;11.18;;;15.70;99.90;;;;;;5079575;28;20021;-87
2023/05/21 05:08:29;;;;;;;20.27;11.05;;;15.80;99.90;;;;;;5076258;28;20158;-86
2023/05/21 05:10:54;;;;;;;18.67;11.18;;;15.80;99.90;;;;;;5077230;28;20083;-87
2023/05/21 05:13:20;;;;;;;16.17;10.90;;;15.80;99.90;;;;;;5077040;28;20039;-87
2023/05/21 05:15:46;;;;;;;20.35;12.05;;;15.90;99.90;;;;;;5074961;28;20032;-87
2023/05/21 05:18:12;;;;;;;19.35;11.75;;;15.90;99.90;;;;;;5072925;28;20385;-89
2023/05/21 05:20:37;;;;;;;18.55;11.07;;;16.00;99.90;;;;;;5074091;28;20362;-88
2023/05/21 05:23:03;;;;;;;21.48;11.80;;;16.10;99.90;;;;;;5073032;28;20028;-88
2023/05/21 05:25:29;;;;;;;21.33;11.60;;;16.10;99.90;;;;;;5075060;28;20123;-88
2023/05/21 05:27:54;;;;;;;19.77;11.50;;;16.20;99.90;;;;;;5076999;28;20420;-88
2023/05/21 05:30:20;;;;;;;18.50;11.75;;;16.30;99.90;;;;;;5077628;28;20025;-89
2023/05/21 05:32:46;;;;;;;18.75;10.63;;;16.30;99.90;;;;;;5077043;28;20036;-88
2023/05/21 05:35:11;;;;;;;17.85;10.85;;;16.40;99.90;;;;;;5077600;28;20035;-89
2023/05/21 05:37:37;;;;;;;18.38;10.50;;;16.50;99.90;;;;;;5093854;28;20465;-89
2023/05/21 05:40:04;;;;;;;20.00;11.20;;;16.50;99.90;;;;;;5094561;28;20025;-88
2023/05/21 05:42:30;;;;;;;17.23;10.57;;;16.50;99.90;;;;;;5076614;28;20053;-88
2023/05/21 05:44:56;;;;;;;19.15;11.00;;;16.60;99.90;;;;;;5077780;28;20107;-88
2023/05/21 05:47:21;;;;;;;19.17;10.63;;;16.60;99.90;;;;;;5077386;28;20021;-88
2023/05/21 05:49:47;;;;;;;16.80;10.50;;;16.70;99.90;;;;;;5077147;28;20035;-88
2023/05/21 05:52:13;;;;;;;18.50;11.43;;;16.70;99.90;;;;;;5076796;28;20032;-91
2023/05/21 05:54:39;;;;;;;17.58;10.38;;;16.80;99.90;;;;;;5093572;28;20059;-90
2023/05/21 05:57:04;;;;;;;19.35;10.65;;;16.80;99.90;;;;;;5076069;28;20462;-90
2023/05/21 05:59:32;;;;;;;17.80;10.90;;;16.90;99.90;;;;;;5070238;28;20103;-89
2023/05/21 06:01:58;;;;;;;17.33;10.30;;;16.90;99.90;;;;;;5074664;28;20059;-89
2023/05/21 06:04:24;;;;;;;16.67;10.23;;;17.00;99.90;;;;;;5092012;28;20036;-89
2023/05/21 06:06:51;;;;;;;19.88;10.02;;;17.10;99.90;;;;;;5076041;28;20131;-89
2023/05/21 06:09:17;;;;;;;19.00;10.45;;;17.20;99.90;;;;;;5076477;28;20060;-90
2023/05/21 06:11:42;;;;;;;18.88;10.80;;;17.20;99.90;;;;;;5076785;28;20479;-87
2023/05/21 06:14:08;;;;;;;17.08;10.07;;;17.20;99.90;;;;;;5075354;28;20028;-87
2023/05/21 06:16:33;;;;;;;17.75;10.43;;;17.30;99.90;;;;;;5057068;28;20389;-86
2023/05/21 06:18:59;;;;;;;19.33;10.57;;;17.30;99.90;;;;;;5055905;28;20112;-87
2023/05/21 06:21:25;;;;;;;19.98;10.85;;;17.40;99.90;;;;;;5056710;28;20032;-86
2023/05/21 06:23:50;;;;;;;18.98;10.43;;;17.40;99.90;;;;;;5058910;28;20029;-87
2023/05/21 06:26:18;;;;;;;17.98;10.85;;;17.50;99.90;;;;;;5072188;28;20063;-88
2023/05/21 06:28:43;;;;;;;18.65;10.30;;;17.50;99.90;;;;;;5075132;28;20051;-85
2023/05/21 06:31:10;;;;;;;16.60;9.90;;;17.60;99.90;;;;;;5092777;28;20468;-85
2023/05/21 06:33:36;;;;;;;18.52;10.90;;;17.60;99.90;;;;;;5060604;28;20033;-87
2023/05/21 06:36:01;;;;;;;16.67;10.25;;;17.60;99.90;;;;;;5070298;28;20028;-87
2023/05/21 06:38:27;;;;;;;16.90;10.80;;;17.70;99.90;;;;;;5092232;28;20476;-88
2023/05/21 06:40:53;;;;;;;17.08;10.35;;;17.80;99.90;;;;;;5092327;28;20528;-89
2023/05/21 06:43:18;;;;;;;15.00;9.95;;;17.80;99.90;;;;;;5091892;28;20369;-91
2023/05/21 06:45:44;;;;;;;18.50;10.40;;;17.90;99.90;;;;;;5063750;28;20037;-88
2023/05/21 06:48:11;;;;;;;15.80;9.93;;;18.00;99.90;;;;;;5054613;28;20421;-88
2023/05/21 06:50:36;;;;;;;16.15;10.27;;;18.00;99.90;;;;;;5072065;28;20029;-87
2023/05/21 06:53:02;;;;;;;15.32;9.73;;;18.10;99.90;;;;;;5056154;28;20047;-87
2023/05/21 06:55:28;;;;;;;14.35;9.38;;;18.20;99.90;;;;;;5055110;28;20421;-85
2023/05/21 06:57:54;;;;;;;17.73;10.25;;;18.20;99.90;;;;;;5067891;28;20021;-85
2023/05/21 07:00:20;;;;;;;19.33;10.75;;;18.30;99.90;;;;;;5075937;28;20024;-87
2023/05/21 07:02:46;;;;;;;18.70;10.13;;;18.30;99.90;;;;;;5075898;28;20397;-85
2023/05/21 07:05:11;;;;;;;17.10;10.00;;;18.30;99.90;;;;;;5076326;28;20024;-85
2023/05/21 07:07:37;;;;;;;20.38;10.48;;;18.40;99.90;;;;;;5074509;28;20786;-86
2023/05/21 07:10:03;;;;;;;15.65;10.25;;;18.50;99.90;;;;;;5075853;28;20123;-86
2023/05/21 07:12:28;;;;;;;16.13;9.85;;;18.50;99.90;;;;;;5057077;28;20029;-81
2023/05/21 07:14:54;;;;;;;19.00;9.77;;;18.60;99.90;;;;;;5060036;28;20090;-83
2023/05/21 07:17:19;;;;;;;16.55;9.90;;;18.70;99.90;;;;;;5065607;28;20112;-90
2023/05/21 07:19:45;;;;;;;16.05;9.95;;;18.80;99.90;;;;;;5066183;28;20469;-88
2023/05/21 07:22:11;;;;;;;17.98;9.63;;;18.80;99.90;;;;;;5058634;28;20055;-88
2023/05/21 07:24:37;;;;;;;13.88;9.13;;;18.90;99.90;;;;;;5071038;28;20079;-89
2023/05/21 07:27:03;;;;;;;14.82;9.15;;;18.90;99.90;;;;;;5054461;28;20458;-88
2023/05/21 07:29:28;;;;;;;16.67;9.93;;;19.00;99.90;;;;;;5054202;28;20075;-88
2023/05/21 07:31:54;;;;;;;15.23;9.00;;;19.10;99.90;;;;;;5054603;28;20033;-89
2023/05/21 07:34:20;;;;;;;16.00;8.55;;;19.20;99.90;;;;;;5055235;28;20037;-89
2023/05/21 07:36:46;;;;;;;13.18;8.48;;;19.30;99.90;;;;;;5073258;28;20453;-89
2023/05/21 07:39:11;;;;;;;14.02;8.68;;;19.40;99.90;;;;;;5062450;28;20078;-86
2023/05/21 07:41:37;;;;;;;12.13;8.48;;;19.50;99.90;;;;;;5055639;28;20029;-84
2023/05/21 07:44:03;;;;;;;13.02;8.95;;;19.50;99.90;;;;;;5055334;28;20469;-85
2023/05/21 07:46:28;;;;;;;13.50;9.13;;;19.60;99.90;;;;;;5066422;28;20035;-85
2023/05/21 07:48:54;;;;;;;12.65;8.50;;;19.70;99.90;;;;;;5074749;28;20025;-89
2023/05/21 07:51:20;;;;;;;14.77;8.48;;;19.70;99.90;;;;;;5074262;28;20020;-87
2023/05/21 07:53:45;;;;;;;11.57;8.63;;;19.80;99.90;;;;;;5073651;28;20047;-87
2023/05/21 07:56:11;;;;;;;12.13;8.43;;;19.90;99.90;;;;;;5058529;28;20028;-88
2023/05/21 07:58:37;;;;;;;19.90;8.63;;;20.00;99.90;;;;;;5072699;28;20056;-88
2023/05/21 08:01:02;;;;;;;13.20;8.15;;;20.00;99.90;;;;;;5088613;28;20052;-88
2023/05/21 08:03:29;;;;;;;14.52;8.18;;;20.20;99.90;;;;;;5066236;28;20385;-88
2023/05/21 08:05:55;;;;;;;11.40;7.78;;;20.20;99.90;;;;;;5060503;28;20020;-87
2023/05/21 08:08:22;;;;;;;12.35;8.10;;;20.30;99.90;;;;;;5056259;28;20024;-89
2023/05/21 08:10:48;;;;;;;14.10;8.02;;;20.40;99.90;;;;;;5054486;28;20028;-86
2023/05/21 08:13:15;;;;;;;12.05;8.55;;;20.40;99.90;;;;;;5053850;28;20033;-86
2023/05/21 08:15:40;;;;;;;11.63;8.20;;;20.40;99.90;;;;;;5053231;28;20335;-86
2023/05/21 08:18:06;;;;;;;14.40;8.80;;;20.40;99.90;;;;;;5057268;28;20481;-86
2023/05/21 08:20:32;;;;;;;13.32;7.85;;;20.40;99.90;;;;;;5074695;28;20031;-87
2023/05/21 08:22:59;;;;;;;12.63;8.32;;;20.50;99.90;;;;;;5064059;28;20470;-86
2023/05/21 08:25:25;;;;;;;13.63;8.13;;;20.50;99.90;;;;;;5090921;28;20068;-88
2023/05/21 08:27:50;;;;;;;11.98;7.88;;;20.40;99.90;;;;;;5073587;28;20078;-86
2023/05/21 08:30:16;;;;;;;12.88;8.00;;;20.40;99.90;;;;;;5073675;28;20024;-87
2023/05/21 08:32:42;;;;;;;13.18;8.20;;;20.40;99.90;;;;;;5072865;28;20031;-88
2023/05/21 08:35:08;;;;;;;12.10;7.82;;;20.40;99.90;;;;;;5073738;28;20028;-84
2023/05/21 08:37:34;;;;;;;12.60;7.75;;;20.30;99.90;;;;;;5063017;28;20030;-85
2023/05/21 08:40:00;;;;;;;11.90;7.75;;;20.30;99.90;;;;;;5060996;28;20025;-85
2023/05/21 08:42:57;;;;;;;13.60;8.00;;;20.30;99.90;;;;;;5073062;28;20028;-87
2023/05/21 08:45:23;;;;;;;11.60;7.82;;;20.30;99.90;;;;;;5049800;28;20048;-86
2023/05/21 08:47:58;;;;;;;12.32;8.30;;;20.20;99.90;;;;;;5054483;28;20033;-88
2023/05/21 08:50:26;;;;;;;10.60;7.50;;;20.20;99.90;;;;;;5068322;28;20076;-91
2023/05/21 08:52:51;;;;;;;12.68;8.35;;;20.20;99.90;;;;;;5069322;28;20071;-89
2023/05/21 08:55:17;;;;;;;12.57;7.85;;;20.20;99.90;;;;;;5088926;28;20029;-85
2023/05/21 08:57:43;;;;;;;13.52;7.82;;;20.20;99.90;;;;;;5066874;28;20025;-91
2023/05/21 09:00:10;;;;;;;10.75;8.10;;;20.20;99.90;;;;;;5051996;28;20032;-85
2023/05/21 09:02:39;;;;;;;12.48;8.10;;;20.10;99.90;;;;;;5068711;28;20048;-91
2023/05/21 09:05:07;;;;;;;12.93;7.53;;;20.10;99.90;;;;;;5061184;28;20132;-93
2023/05/21 09:07:47;;;;;;;12.02;7.75;;;20.10;99.90;;;;;;5064945;28;20080;-89
2023/05/21 09:10:15;;;;;;;12.27;8.55;;;20.20;99.90;;;;;;5070148;28;20477;-89
2023/05/21 09:12:41;;;;;;;12.73;8.25;;;20.10;99.90;;;;;;5053333;28;20079;-88
2023/05/21 09:15:07;;;;;;;13.27;7.80;;;20.20;99.90;;;;;;5059633;28;20024;-89
2023/05/21 09:17:32;;;;;;;12.20;8.20;;;20.20;99.90;;;;;;5071212;28;20060;-86
2023/05/21 09:20:12;;;;;;;11.82;7.57;;;20.20;99.90;;;;;;5073344;28;20055;-85
2023/05/21 09:22:44;;;;;;;12.60;8.27;;;20.20;99.90;;;;;;5053391;28;20032;-85
2023/05/21 09:25:12;;;;;;;11.35;8.18;;;20.30;99.90;;;;;;5058764;28;20028;-79
2023/05/21 09:27:38;;;;;;;13.73;7.43;;;20.30;99.90;;;;;;5068715;28;20490;-86
2023/05/21 09:30:08;;;;;;;11.73;7.60;;;20.30;99.90;;;;;;5072494;28;20032;-86
2023/05/21 09:32:34;;;;;;;20.38;8.13;;;20.40;99.90;;;;;;5056242;28;20035;-81
2023/05/21 09:35:08;;;;;;;11.85;7.35;;;20.50;99.90;;;;;;5073528;28;20107;-84
2023/05/21 09:37:42;;;;;;;10.65;7.93;;;20.50;99.90;;;;;;5078081;28;20017;-90
2023/05/21 09:40:10;;;;;;;11.93;7.88;;;20.60;99.90;;;;;;5053626;28;20025;-89
2023/05/21 09:42:41;;;;;;;10.10;7.68;;;20.70;99.90;;;;;;5067249;28;20440;-89
2023/05/21 09:45:09;;;;;;;13.10;8.18;;;20.80;99.90;;;;;;5072438;28;20024;-92
2023/05/21 09:47:43;;;;;;;12.43;7.65;;;20.80;99.90;;;;;;5070458;28;20051;-85
2023/05/21 09:50:21;;;;;;;11.23;7.45;;;20.90;99.90;;;;;;5072104;28;20048;-85
2023/05/21 09:52:49;;;;;;;10.98;8.02;;;21.00;99.90;;;;;;5066263;28;20029;-87
2023/05/21 09:55:15;;;;;;;11.20;7.70;;;21.10;99.90;;;;;;5058440;28;20040;-85
2023/05/21 09:57:46;;;;;;;10.40;7.47;;;21.20;99.90;;;;;;5055357;28;20025;-88
2023/05/21 10:00:23;;;;;;;9.98;7.68;;;21.20;99.90;;;;;;5072924;28;20056;-85
2023/05/21 10:02:53;;;;;;;10.77;7.03;;;21.30;99.90;;;;;;5072587;28;20086;-85
2023/05/21 10:05:19;;;;;;;13.85;7.88;;;21.50;99.90;;;;;;5069040;28;20021;-85
2023/05/21 10:07:50;;;;;;;9.88;7.32;;;21.60;99.90;;;;;;5058067;28;20567;-87
2023/05/21 10:10:21;;;;;;;10.65;6.85;;;21.70;99.90;;;;;;5052098;28;20025;-87
2023/05/21 10:13:12;;;;;;;10.98;7.40;;;21.80;99.90;;;;;;5073364;28;20025;-87
2023/05/21 10:15:42;;;;;;;10.60;7.55;;;21.90;99.90;;;;;;5059470;28;20071;-83
2023/05/21 10:18:10;;;;;;;11.38;7.20;;;22.00;99.90;;;;;;5062597;28;20025;-84
2023/05/21 10:20:37;;;;;;;12.07;7.55;;;22.10;99.90;;;;;;5073719;28;20030;-87
2023/05/21 10:23:03;;;;;;;10.23;7.32;;;22.10;99.90;;;;;;5064276;28;20051;-83
2023/05/21 10:25:31;;;;;;;10.13;7.30;;;22.20;99.90;;;;;;5075509;28;20454;-85
2023/05/21 10:27:56;;;;;;;8.57;7.18;;;22.30;99.90;;;;;;5072112;28;20058;-82
2023/05/21 10:30:23;;;;;;;10.05;7.38;;;22.50;99.90;;;;;;5069784;28;20021;-84
2023/05/21 10:32:49;;;;;;;11.60;7.90;;;22.50;99.90;;;;;;5075150;28;20025;-84
2023/05/21 10:35:16;;;;;;;10.40;7.38;;;22.60;99.90;;;;;;5068829;28;20069;-86
2023/05/21 10:37:44;;;;;;;9.80;6.68;;;22.70;99.90;;;;;;5073444;28;20061;-85
2023/05/21 10:40:11;;;;;;;11.20;6.88;;;22.70;99.90;;;;;;5061281;28;20056;-88
2023/05/21 10:42:48;;;;;;;9.85;6.82;;;22.80;99.90;;;;;;5060321;28;20068;-86
2023/05/21 10:45:32;;;;;;;10.80;7.60;;;22.90;99.90;;;;;;5069199;28;20461;-88
2023/05/21 10:48:11;;;;;;;11.57;7.78;;;23.00;99.90;;;;;;5078334;28;20028;-85
2023/05/21 10:51:26;;;;;;;10.07;6.75;;;23.10;99.90;;;;;;5074222;28;20032;-84
2023/05/21 10:53:58;;;;;;;10.13;6.45;;;23.20;99.90;;;;;;5069133;28;20059;-84
2023/05/21 10:56:42;;;;;;;7.35;5.75;;;23.20;99.90;;;;;;5075246;28;20028;-90
2023/05/21 10:59:29;;;;;;;9.13;6.05;;;23.30;99.90;;;;;;5072517;28;20051;-85
2023/05/21 11:01:56;;;;;;;8.43;6.50;;;23.40;99.90;;;;;;5064375;28;20045;-86
2023/05/21 11:04:25;;;;;;;9.15;6.60;;;23.50;99.90;;;;;;5074741;28;20483;-90
2023/05/21 11:06:51;;;;;;;9.77;6.82;;;23.50;99.90;;;;;;5055483;28;20021;-88
2023/05/21 11:09:17;;;;;;;8.55;6.38;;;23.50;99.90;;;;;;5055493;28;20032;-88
2023/05/21 11:11:44;;;;;;;11.65;6.72;;;23.60;99.90;;;;;;5066055;28;20076;-88
2023/05/21 11:14:27;;;;;;;8.95;6.03;;;23.60;99.90;;;;;;5059458;28;20055;-91
2023/05/21 11:16:52;;;;;;;7.97;5.75;;;23.80;99.90;;;;;;5059791;28;20381;-86
2023/05/21 11:19:20;;;;;;;8.65;6.10;;;23.90;99.90;;;;;;5057211;28;20032;-90
2023/05/21 11:21:50;;;;;;;7.97;5.70;;;23.90;99.90;;;;;;5082963;28;20048;-89
2023/05/21 11:24:19;;;;;;;10.93;6.00;;;23.90;99.90;;;;;;5088887;28;20111;-90
2023/05/21 11:26:48;;;;;;;9.65;5.85;;;24.10;99.90;;;;;;5056475;28;20094;-85
2023/05/21 11:29:15;;;;;;;9.10;5.57;;;24.20;99.90;;;;;;5055706;28;20409;-85
2023/05/21 11:31:57;;;;;;;9.45;5.55;;;24.20;99.90;;;;;;5070941;28;20077;-86
2023/05/21 11:34:33;;;;;;;7.68;5.55;;;24.30;99.90;;;;;;5074480;28;20086;-90
2023/05/21 11:39:47;;;;;;;7.35;5.95;;;24.40;99.90;;;;;;5074816;28;20032;-87
2023/05/21 11:42:29;;;;;;;8.75;5.80;;;24.50;99.90;;;;;;5058966;28;20505;-87
2023/05/21 11:44:59;;;;;;;7.65;5.07;;;24.50;99.90;;;;;;5054027;28;20036;-87
2023/05/21 11:47:25;;;;;;;8.52;5.90;;;24.60;99.50;;;;;;5059742;28;20697;-88
2023/05/21 11:49:51;;;;;;;10.18;5.53;;;24.60;98.60;;;;;;5094582;28;20031;-86
2023/05/21 11:52:18;;;;;;;7.68;5.63;;;24.50;98.00;;;;;;5094416;28;20028;-86
2023/05/21 11:54:50;;;;;;;6.78;5.60;;;24.50;98.60;;;;;;5066963;28;20473;-85
2023/05/21 11:57:20;;;;;;;6.53;5.25;;;24.50;98.70;;;;;;5074474;28;20063;-93
2023/05/21 11:59:46;;;;;;;6.57;4.97;;;24.50;98.70;;;;;;5062841;28;20112;-94
2023/05/21 12:02:20;;;;;;;9.55;5.65;;;24.60;97.80;;;;;;5053978;28;20053;-90
2023/05/21 12:04:47;;;;;;;7.55;5.38;;;24.60;98.50;;;;;;5069897;28;20147;-86
2023/05/21 12:07:14;;;;;;;6.85;5.32;;;24.50;97.40;;;;;;5061694;28;20028;-89
2023/05/21 12:09:50;;;;;;;8.20;5.68;;;24.70;97.90;;;;;;5052525;28;20114;-91
2023/05/21 12:12:21;;;;;;;7.72;5.05;;;24.70;97.80;;;;;;5067492;28;20029;-92
2023/05/21 12:14:49;;;;;;;7.18;5.30;;;24.70;98.70;;;;;;5053320;28;20021;-90
2023/05/21 12:17:17;;;;;;;7.43;5.30;;;24.90;98.10;;;;;;5071200;28;20020;-92
2023/05/21 12:19:45;;;;;;;6.95;5.57;;;25.00;98.40;;;;;;5054505;28;20071;-89
2023/05/21 12:22:11;;;;;;;9.13;5.03;;;25.10;97.70;;;;;;5054454;28;20025;-90
2023/05/21 12:24:38;;;;;;;10.02;5.68;;;25.20;97.70;;;;;;5052445;28;20045;-83
2023/05/21 12:27:08;;;;;;;9.13;5.68;;;25.30;97.20;;;;;;5055475;28;20490;-83
2023/05/21 12:29:35;;;;;;;6.90;5.23;;;25.40;97.70;;;;;;5072605;28;20115;-83
2023/05/21 12:32:02;;;;;;;8.07;5.68;;;25.40;97.20;;;;;;5058808;28;20320;-83
2023/05/21 12:34:51;;;;;;;7.60;5.35;;;25.50;96.40;;;;;;5052118;28;20060;-84
2023/05/21 12:37:24;;;;;;;7.18;5.55;;;25.50;96.20;;;;;;5053025;28;20048;-81
2023/05/21 12:39:51;;;;;;;9.15;5.38;;;25.60;96.90;;;;;;5056080;28;20469;-81